sensor_id;sensor_type;location;lat;lon;timestamp;pressure;altitude;pressure_sealevel;temperature;humidity
8280;BME280;8335;42.646;23.380;2023-04-30T00:02:06;144363.69;;;11.25;89.22
8280;BME280;8335;42.646;23.380;2023-04-30T00:04:33;144363.69;;;11.25;89.08
8280;BME280;8335;42.646;23.380;2023-04-30T00:07:00;144340.06;;;11.16;89.69
8280;BME280;8335;42.646;23.380;2023-04-30T00:09:26;144320.19;;;11.08;89.88
8280;BME280;8335;42.646;23.380;2023-04-30T00:11:53;144317.66;;;11.07;90.68
8280;BME280;8335;42.646;23.380;2023-04-30T00:14:20;144302.75;;;11.00;90.71
8280;BME280;8335;42.646;23.380;2023-04-30T00:16:48;144307.72;;;11.02;88.76
8280;BME280;8335;42.646;23.380;2023-04-30T00:19:15;144302.75;;;11.00;87.62
8280;BME280;8335;42.646;23.380;2023-04-30T00:21:42;144295.28;;;10.97;87.79
8280;BME280;8335;42.646;23.380;2023-04-30T00:24:08;144296.50;;;10.98;87.65
8280;BME280;8335;42.646;23.380;2023-04-30T00:26:35;144290.31;;;10.95;87.97
8280;BME280;8335;42.646;23.380;2023-04-30T00:29:02;144286.59;;;10.94;88.70
8280;BME280;8335;42.646;23.380;2023-04-30T00:31:29;144260.47;;;10.83;89.45
8280;BME280;8335;42.646;23.380;2023-04-30T00:33:57;144238.09;;;10.74;89.99
8280;BME280;8335;42.646;23.380;2023-04-30T00:36:24;144218.22;;;10.66;90.70
8280;BME280;8335;42.646;23.380;2023-04-30T00:38:51;144199.56;;;10.58;91.33
8280;BME280;8335;42.646;23.380;2023-04-30T00:41:17;144189.59;;;10.54;92.09
8280;BME280;8335;42.646;23.380;2023-04-30T00:43:45;144179.63;;;10.50;92.53
8280;BME280;8335;42.646;23.380;2023-04-30T00:46:12;144124.94;;;10.28;92.65
8280;BME280;8335;42.646;23.380;2023-04-30T00:48:39;144164.75;;;10.44;92.93
8280;BME280;8335;42.646;23.380;2023-04-30T00:51:07;144151.06;;;10.38;92.93
8280;BME280;8335;42.646;23.380;2023-04-30T00:53:34;144127.47;;;10.29;93.49
8280;BME280;8335;42.646;23.380;2023-04-30T00:56:01;144113.78;;;10.23;93.09
8280;BME280;8335;42.646;23.380;2023-04-30T00:58:28;144085.16;;;10.11;93.05
8280;BME280;8335;42.646;23.380;2023-04-30T01:00:55;144067.75;;;10.04;92.97
8280;BME280;8335;42.646;23.380;2023-04-30T01:03:22;144056.56;;;10.00;92.90
8280;BME280;8335;42.646;23.380;2023-04-30T01:05:49;144047.88;;;9.96;92.83
8280;BME280;8335;42.646;23.380;2023-04-30T01:08:19;143983.25;;;9.70;93.11
8280;BME280;8335;42.646;23.380;2023-04-30T01:10:51;144028.00;;;9.88;93.85
8280;BME280;8335;42.646;23.380;2023-04-30T01:13:23;144014.31;;;9.82;94.37
8280;BME280;8335;42.646;23.380;2023-04-30T01:15:58;143999.41;;;9.76;95.07
8280;BME280;8335;42.646;23.380;2023-04-30T01:18:28;143984.50;;;9.70;95.38
8280;BME280;8335;42.646;23.380;2023-04-30T01:21:00;143959.69;;;9.60;95.14
8280;BME280;8335;42.646;23.380;2023-04-30T01:23:41;143968.34;;;9.63;95.01
8280;BME280;8335;42.646;23.380;2023-04-30T01:26:17;143946.00;;;9.54;94.72
8280;BME280;8335;42.646;23.380;2023-04-30T01:28:49;143949.72;;;9.56;94.38
8280;BME280;8335;42.646;23.380;2023-04-30T01:31:19;143953.50;;;9.57;94.64
8280;BME280;8335;42.646;23.380;2023-04-30T01:33:45;143950.97;;;9.56;94.39
8280;BME280;8335;42.646;23.380;2023-04-30T01:36:24;143950.97;;;9.56;92.92
8280;BME280;8335;42.646;23.380;2023-04-30T01:39:01;143952.19;;;9.57;92.70
8280;BME280;8335;42.646;23.380;2023-04-30T01:41:36;143946.00;;;9.54;92.38
8280;BME280;8335;42.646;23.380;2023-04-30T01:44:19;143893.84;;;9.33;92.27
8280;BME280;8335;42.646;23.380;2023-04-30T01:46:56;143946.00;;;9.54;92.32
8280;BME280;8335;42.646;23.380;2023-04-30T01:49:30;143931.09;;;9.48;91.97
8280;BME280;8335;42.646;23.380;2023-04-30T01:52:08;143906.28;;;9.38;91.89
8280;BME280;8335;42.646;23.380;2023-04-30T01:54:44;143910.00;;;9.40;91.99
8280;BME280;8335;42.646;23.380;2023-04-30T01:57:20;143902.56;;;9.36;91.69
8280;BME280;8335;42.646;23.380;2023-04-30T01:59:51;143900.03;;;9.35;91.69
8280;BME280;8335;42.646;23.380;2023-04-30T02:02:18;143911.22;;;9.40;91.33
8280;BME280;8335;42.646;23.380;2023-04-30T02:04:45;143914.94;;;9.42;90.80
8280;BME280;8335;42.646;23.380;2023-04-30T02:07:19;143938.56;;;9.51;90.57
8280;BME280;8335;42.646;23.380;2023-04-30T02:09:53;143946.00;;;9.54;90.45
8280;BME280;8335;42.646;23.380;2023-04-30T02:12:20;143936.09;;;9.50;89.99
8280;BME280;8335;42.646;23.380;2023-04-30T02:14:47;143933.56;;;9.49;90.57
8280;BME280;8335;42.646;23.380;2023-04-30T02:17:15;143931.09;;;9.48;91.08
8280;BME280;8335;42.646;23.380;2023-04-30T02:19:42;143926.13;;;9.46;91.48
8280;BME280;8335;42.646;23.380;2023-04-30T02:22:08;143914.94;;;9.42;91.93
8280;BME280;8335;42.646;23.380;2023-04-30T02:24:35;143906.28;;;9.38;92.12
8280;BME280;8335;42.646;23.380;2023-04-30T02:27:02;143895.09;;;9.33;92.47
8280;BME280;8335;42.646;23.380;2023-04-30T02:29:29;143862.78;;;9.20;92.60
8280;BME280;8335;42.646;23.380;2023-04-30T02:31:57;143861.56;;;9.20;92.90
8280;BME280;8335;42.646;23.380;2023-04-30T02:34:25;143847.88;;;9.14;92.93
8280;BME280;8335;42.646;23.380;2023-04-30T02:36:52;143840.44;;;9.11;93.62
8280;BME280;8335;42.646;23.380;2023-04-30T02:39:19;143839.22;;;9.10;93.51
8280;BME280;8335;42.646;23.380;2023-04-30T02:41:46;143830.50;;;9.07;93.55
8280;BME280;8335;42.646;23.380;2023-04-30T02:44:12;143797.03;;;8.93;94.10
8280;BME280;8335;42.646;23.380;2023-04-30T02:46:39;143801.97;;;8.95;93.87
8280;BME280;8335;42.646;23.380;2023-04-30T02:49:06;143790.78;;;8.91;94.87
8280;BME280;8335;42.646;23.380;2023-04-30T02:51:34;143790.78;;;8.91;94.69
8280;BME280;8335;42.646;23.380;2023-04-30T02:54:01;143798.25;;;8.94;93.70
8280;BME280;8335;42.646;23.380;2023-04-30T02:56:27;143799.50;;;8.94;92.53
8280;BME280;8335;42.646;23.380;2023-04-30T02:58:55;143599.63;;;8.12;93.10
8280;BME280;8335;42.646;23.380;2023-04-30T03:01:21;143793.25;;;8.92;92.12
8280;BME280;8335;42.646;23.380;2023-04-30T03:03:48;143797.03;;;8.93;91.70
8280;BME280;8335;42.646;23.380;2023-04-30T03:06:15;143790.78;;;8.91;91.73
8280;BME280;8335;42.646;23.380;2023-04-30T03:08:43;143797.03;;;8.93;90.65
8280;BME280;8335;42.646;23.380;2023-04-30T03:11:10;143808.16;;;8.98;90.27
8280;BME280;8335;42.646;23.380;2023-04-30T03:13:36;143805.69;;;8.97;89.62
8280;BME280;8335;42.646;23.380;2023-04-30T03:16:03;143810.63;;;8.99;89.48
8280;BME280;8335;42.646;23.380;2023-04-30T03:18:31;143788.31;;;8.90;90.36
8280;BME280;8335;42.646;23.380;2023-04-30T03:20:58;143730.00;;;8.66;90.42
8280;BME280;8335;42.646;23.380;2023-04-30T03:23:26;143773.41;;;8.83;90.17
8280;BME280;8335;42.646;23.380;2023-04-30T03:25:55;143789.53;;;8.90;90.33
8280;BME280;8335;42.646;23.380;2023-04-30T03:28:21;143801.97;;;8.95;90.78
8280;BME280;8335;42.646;23.380;2023-04-30T03:30:48;143816.88;;;9.01;90.86
8280;BME280;8335;42.646;23.380;2023-04-30T03:33:15;143836.75;;;9.09;90.37
8280;BME280;8335;42.646;23.380;2023-04-30T03:35:42;143871.50;;;9.24;90.15
8280;BME280;8335;42.646;23.380;2023-04-30T03:38:08;143907.50;;;9.38;89.75
8280;BME280;8335;42.646;23.380;2023-04-30T03:40:35;143934.81;;;9.50;88.30
8280;BME280;8335;42.646;23.380;2023-04-30T03:43:04;143939.81;;;9.52;87.65
8280;BME280;8335;42.646;23.380;2023-04-30T03:45:31;143965.88;;;9.62;86.94
8280;BME280;8335;42.646;23.380;2023-04-30T03:47:58;143964.63;;;9.62;86.65
8280;BME280;8335;42.646;23.380;2023-04-30T03:50:24;143975.84;;;9.67;86.49
8280;BME280;8335;42.646;23.380;2023-04-30T03:52:51;143965.88;;;9.62;86.10
8280;BME280;8335;42.646;23.380;2023-04-30T03:55:18;143960.91;;;9.60;86.18
8280;BME280;8335;42.646;23.380;2023-04-30T03:57:45;143958.44;;;9.59;86.14
8280;BME280;8335;42.646;23.380;2023-04-30T04:00:13;143962.16;;;9.61;86.53
8280;BME280;8335;42.646;23.380;2023-04-30T04:02:40;143958.44;;;9.59;86.56
8280;BME280;8335;42.646;23.380;2023-04-30T04:05:07;143977.06;;;9.67;86.88
8280;BME280;8335;42.646;23.380;2023-04-30T04:07:35;143994.47;;;9.74;86.81
8280;BME280;8335;42.646;23.380;2023-04-30T04:10:01;144018.06;;;9.84;87.05
8280;BME280;8335;42.646;23.380;2023-04-30T04:12:28;144034.19;;;9.90;86.45
8280;BME280;8335;42.646;23.380;2023-04-30T04:14:55;144051.59;;;9.98;86.16
8280;BME280;8335;42.646;23.380;2023-04-30T04:17:23;144075.25;;;10.07;85.52
8280;BME280;8335;42.646;23.380;2023-04-30T04:19:50;144092.63;;;10.14;85.23
8280;BME280;8335;42.646;23.380;2023-04-30T04:22:16;144116.28;;;10.24;84.73
8280;BME280;8335;42.646;23.380;2023-04-30T04:24:43;144129.97;;;10.30;84.03
8280;BME280;8335;42.646;23.380;2023-04-30T04:27:10;144158.50;;;10.41;84.27
8280;BME280;8335;42.646;23.380;2023-04-30T04:29:37;144173.44;;;10.47;84.36
8280;BME280;8335;42.646;23.380;2023-04-30T04:32:04;144184.66;;;10.52;84.83
8280;BME280;8335;42.646;23.380;2023-04-30T04:34:32;144215.72;;;10.65;85.57
8280;BME280;8335;42.646;23.380;2023-04-30T04:36:59;144233.13;;;10.72;85.05
8280;BME280;8335;42.646;23.380;2023-04-30T04:39:25;144250.53;;;10.79;84.51
8280;BME280;8335;42.646;23.380;2023-04-30T04:41:52;144290.31;;;10.95;84.00
8280;BME280;8335;42.646;23.380;2023-04-30T04:44:19;144322.66;;;11.09;84.44
8280;BME280;8335;42.646;23.380;2023-04-30T04:46:46;144371.13;;;11.28;84.03
8280;BME280;8335;42.646;23.380;2023-04-30T04:49:14;144410.97;;;11.45;82.47
8280;BME280;8335;42.646;23.380;2023-04-30T04:51:42;144336.28;;;11.14;80.40
8280;BME280;8335;42.646;23.380;2023-04-30T04:54:09;144466.94;;;11.68;78.31
8280;BME280;8335;42.646;23.380;2023-04-30T04:56:35;144506.78;;;11.84;78.04
8280;BME280;8335;42.646;23.380;2023-04-30T04:59:02;144539.16;;;11.97;77.81
8280;BME280;8335;42.646;23.380;2023-04-30T05:01:29;144552.84;;;12.03;76.57
8280;BME280;8335;42.646;23.380;2023-04-30T05:03:56;144547.88;;;12.01;76.75
8280;BME280;8335;42.646;23.380;2023-04-30T05:06:22;144535.44;;;11.96;76.56
8280;BME280;8335;42.646;23.380;2023-04-30T05:08:50;144534.19;;;11.95;77.22
8280;BME280;8335;42.646;23.380;2023-04-30T05:11:17;144541.63;;;11.98;76.59
8280;BME280;8335;42.646;23.380;2023-04-30T05:13:44;144537.91;;;11.97;77.08
8280;BME280;8335;42.646;23.380;2023-04-30T05:16:10;144539.16;;;11.97;77.37
8280;BME280;8335;42.646;23.380;2023-04-30T05:18:37;144547.88;;;12.01;77.31
8280;BME280;8335;42.646;23.380;2023-04-30T05:21:04;144567.78;;;12.09;76.66
8280;BME280;8335;42.646;23.380;2023-04-30T05:23:31;144578.97;;;12.13;76.98
8280;BME280;8335;42.646;23.380;2023-04-30T05:25:59;144534.19;;;11.95;76.55
8280;BME280;8335;42.646;23.380;2023-04-30T05:28:26;144592.66;;;12.19;76.40
8280;BME280;8335;42.646;23.380;2023-04-30T05:30:53;144600.16;;;12.22;76.72
8280;BME280;8335;42.646;23.380;2023-04-30T05:33:20;144602.66;;;12.23;77.19
8280;BME280;8335;42.646;23.380;2023-04-30T05:35:46;144620.06;;;12.30;76.92
8280;BME280;8335;42.646;23.380;2023-04-30T05:38:13;144610.09;;;12.26;77.31
8280;BME280;8335;42.646;23.380;2023-04-30T05:40:40;144588.94;;;12.18;77.51
8280;BME280;8335;42.646;23.380;2023-04-30T05:43:08;144571.53;;;12.10;78.71
8280;BME280;8335;42.646;23.380;2023-04-30T05:45:35;144578.97;;;12.13;79.12
8280;BME280;8335;42.646;23.380;2023-04-30T05:48:02;144583.97;;;12.16;79.21
8280;BME280;8335;42.646;23.380;2023-04-30T05:50:28;144600.16;;;12.22;79.37
8280;BME280;8335;42.646;23.380;2023-04-30T05:52:57;144622.56;;;12.31;79.45
8280;BME280;8335;42.646;23.380;2023-04-30T05:55:24;144652.44;;;12.44;79.54
8280;BME280;8335;42.646;23.380;2023-04-30T05:57:51;144681.06;;;12.55;78.92
8280;BME280;8335;42.646;23.380;2023-04-30T06:00:19;144705.97;;;12.65;77.81
8280;BME280;8335;42.646;23.380;2023-04-30T06:02:46;144724.66;;;12.73;76.84
8280;BME280;8335;42.646;23.380;2023-04-30T06:05:13;144733.34;;;12.77;75.70
8280;BME280;8335;42.646;23.380;2023-04-30T06:07:39;144753.28;;;12.85;75.37
8280;BME280;8335;42.646;23.380;2023-04-30T06:10:07;144786.91;;;12.99;75.08
8280;BME280;8335;42.646;23.380;2023-04-30T06:12:34;144798.13;;;13.03;74.58
8280;BME280;8335;42.646;23.380;2023-04-30T06:15:01;144835.50;;;13.18;74.90
8280;BME280;8335;42.646;23.380;2023-04-30T06:17:29;144849.25;;;13.24;74.71
8280;BME280;8335;42.646;23.380;2023-04-30T06:19:56;144871.66;;;13.33;74.43
8280;BME280;8335;42.646;23.380;2023-04-30T06:22:26;144891.59;;;13.41;74.59
8280;BME280;8335;42.646;23.380;2023-04-30T06:24:53;144919.03;;;13.53;73.70
8280;BME280;8335;42.646;23.380;2023-04-30T06:27:22;144940.19;;;13.61;73.37
8280;BME280;8335;42.646;23.380;2023-04-30T06:29:48;144972.59;;;13.74;72.69
8280;BME280;8335;42.646;23.380;2023-04-30T06:32:15;144988.81;;;13.81;71.84
8280;BME280;8335;42.646;23.380;2023-04-30T06:34:43;144997.50;;;13.85;72.26
8280;BME280;8335;42.646;23.380;2023-04-30T06:37:10;145023.72;;;13.95;71.54
8280;BME280;8335;42.646;23.380;2023-04-30T06:39:37;145036.19;;;14.00;71.28
8280;BME280;8335;42.646;23.380;2023-04-30T06:42:03;145047.38;;;14.05;70.35
8280;BME280;8335;42.646;23.380;2023-04-30T06:44:30;145063.59;;;14.12;69.99
8280;BME280;8335;42.646;23.380;2023-04-30T06:46:57;145118.44;;;14.34;70.01
8280;BME280;8335;42.646;23.380;2023-04-30T06:49:24;145173.34;;;14.56;70.70
8280;BME280;8335;42.646;23.380;2023-04-30T06:51:52;145255.66;;;14.90;70.41
8280;BME280;8335;42.646;23.380;2023-04-30T06:54:20;145335.53;;;15.23;70.27
8280;BME280;8335;42.646;23.380;2023-04-30T06:56:48;145482.81;;;15.83;67.44
8280;BME280;8335;42.646;23.380;2023-04-30T06:59:14;145615.19;;;16.37;65.98
8280;BME280;8335;42.646;23.380;2023-04-30T07:01:42;145727.63;;;16.83;64.32
8280;BME280;8335;42.646;23.380;2023-04-30T07:04:08;145811.34;;;17.17;63.09
8280;BME280;8335;42.646;23.380;2023-04-30T07:06:36;145887.53;;;17.48;60.39
8280;BME280;8335;42.646;23.380;2023-04-30T07:09:04;145937.56;;;17.68;59.78
8280;BME280;8335;42.646;23.380;2023-04-30T07:11:31;145972.59;;;17.82;59.50
8280;BME280;8335;42.646;23.380;2023-04-30T07:13:58;145993.84;;;17.91;58.01
8280;BME280;8335;42.646;23.380;2023-04-30T07:16:24;145995.09;;;17.92;58.67
8280;BME280;8335;42.646;23.380;2023-04-30T07:18:52;145987.59;;;17.88;58.11
8280;BME280;8335;42.646;23.380;2023-04-30T07:21:18;145955.09;;;17.75;57.88
8280;BME280;8335;42.646;23.380;2023-04-30T07:23:46;145905.03;;;17.55;57.82
8280;BME280;8335;42.646;23.380;2023-04-30T07:26:14;145816.31;;;17.19;60.27
8280;BME280;8335;42.646;23.380;2023-04-30T07:28:41;145730.09;;;16.84;62.08
8280;BME280;8335;42.646;23.380;2023-04-30T07:31:08;145701.41;;;16.72;61.25
8280;BME280;8335;42.646;23.380;2023-04-30T07:33:34;145673.88;;;16.61;62.33
8280;BME280;8335;42.646;23.380;2023-04-30T07:36:01;145688.84;;;16.67;63.60
8280;BME280;8335;42.646;23.380;2023-04-30T07:38:28;145696.38;;;16.70;63.05
8280;BME280;8335;42.646;23.380;2023-04-30T07:40:55;145662.59;;;16.56;62.60
8280;BME280;8335;42.646;23.380;2023-04-30T07:43:23;145663.84;;;16.57;61.54
8280;BME280;8335;42.646;23.380;2023-04-30T07:45:50;145650.16;;;16.51;62.94
8280;BME280;8335;42.646;23.380;2023-04-30T07:48:18;145637.66;;;16.46;62.64
8280;BME280;8335;42.646;23.380;2023-04-30T07:50:46;145625.13;;;16.41;63.91
8280;BME280;8335;42.646;23.380;2023-04-30T07:53:13;145621.41;;;16.39;64.21
8280;BME280;8335;42.646;23.380;2023-04-30T07:55:40;145641.38;;;16.47;64.05
8280;BME280;8335;42.646;23.380;2023-04-30T07:58:06;145658.88;;;16.55;63.75
8280;BME280;8335;42.646;23.380;2023-04-30T08:00:34;145630.13;;;16.43;63.81
8280;BME280;8335;42.646;23.380;2023-04-30T08:03:01;145625.13;;;16.41;63.34
8280;BME280;8335;42.646;23.380;2023-04-30T08:05:28;145703.91;;;16.73;63.42
8280;BME280;8335;42.646;23.380;2023-04-30T08:07:55;145733.84;;;16.85;62.84
8280;BME280;8335;42.646;23.380;2023-04-30T08:10:22;145740.13;;;16.88;62.05
8280;BME280;8335;42.646;23.380;2023-04-30T08:12:49;145827.59;;;17.23;60.43
8280;BME280;8335;42.646;23.380;2023-04-30T08:15:17;145927.53;;;17.64;59.14
8280;BME280;8335;42.646;23.380;2023-04-30T08:17:47;145988.84;;;17.89;58.18
8280;BME280;8335;42.646;23.380;2023-04-30T08:20:14;146067.59;;;18.21;55.26
8280;BME280;8335;42.646;23.380;2023-04-30T08:22:41;146140.19;;;18.51;55.12
8280;BME280;8335;42.646;23.380;2023-04-30T08:25:09;146170.16;;;18.63;54.24
8280;BME280;8335;42.646;23.380;2023-04-30T08:27:37;146251.53;;;18.96;53.01
8280;BME280;8335;42.646;23.380;2023-04-30T08:30:05;146336.66;;;19.31;52.84
8280;BME280;8335;42.646;23.380;2023-04-30T08:32:33;146423.06;;;19.66;51.29
8280;BME280;8335;42.646;23.380;2023-04-30T08:35:01;146423.06;;;19.66;51.50
8280;BME280;8335;42.646;23.380;2023-04-30T08:37:28;146428.06;;;19.68;49.79
8280;BME280;8335;42.646;23.380;2023-04-30T08:39:55;146320.38;;;19.24;51.10
8280;BME280;8335;42.646;23.380;2023-04-30T08:42:24;146262.81;;;19.01;51.58
8280;BME280;8335;42.646;23.380;2023-04-30T08:44:51;146200.25;;;18.75;52.08
8280;BME280;8335;42.646;23.380;2023-04-30T08:47:19;146171.41;;;18.63;53.28
8280;BME280;8335;42.646;23.380;2023-04-30T08:49:47;146131.41;;;18.47;55.73
8280;BME280;8335;42.646;23.380;2023-04-30T08:52:15;146122.66;;;18.43;55.76
8280;BME280;8335;42.646;23.380;2023-04-30T08:54:43;146093.88;;;18.32;56.04
8280;BME280;8335;42.646;23.380;2023-04-30T08:57:10;146082.63;;;18.27;56.30
8280;BME280;8335;42.646;23.380;2023-04-30T08:59:37;146103.88;;;18.36;56.14
8280;BME280;8335;42.646;23.380;2023-04-30T09:02:04;146177.75;;;18.66;59.20
8280;BME280;8335;42.646;23.380;2023-04-30T09:04:31;146269.06;;;19.03;57.62
8280;BME280;8335;42.646;23.380;2023-04-30T09:06:57;146370.44;;;19.44;57.32
8280;BME280;8335;42.646;23.380;2023-04-30T09:09:36;146436.78;;;19.71;52.07
8280;BME280;8335;42.646;23.380;2023-04-30T09:12:11;146510.69;;;20.01;51.95
8280;BME280;8335;42.646;23.380;2023-04-30T09:14:39;146732.41;;;20.92;50.30
8280;BME280;8335;42.646;23.380;2023-04-30T09:17:06;147064.69;;;22.27;50.88
8280;BME280;8335;42.646;23.380;2023-04-30T09:19:34;147404.78;;;23.65;43.53
8280;BME280;8335;42.646;23.380;2023-04-30T09:22:19;147688.69;;;24.80;40.82
8280;BME280;8335;42.646;23.380;2023-04-30T09:24:48;147960.22;;;25.90;38.60
8280;BME280;8335;42.646;23.380;2023-04-30T09:27:16;148013.03;;;26.11;36.10
8280;BME280;8335;42.646;23.380;2023-04-30T09:29:43;148170.28;;;26.75;36.84
8280;BME280;8335;42.646;23.380;2023-04-30T09:32:11;148396.81;;;27.66;37.86
8280;BME280;8335;42.646;23.380;2023-04-30T09:34:38;148587.03;;;28.43;32.41
8280;BME280;8335;42.646;23.380;2023-04-30T09:37:06;148713.00;;;28.94;33.39
8280;BME280;8335;42.646;23.380;2023-04-30T09:39:33;148749.53;;;29.09;31.78
8280;BME280;8335;42.646;23.380;2023-04-30T09:42:08;148731.91;;;29.02;32.26
8280;BME280;8335;42.646;23.380;2023-04-30T09:44:36;148796.13;;;29.28;29.27
8280;BME280;8335;42.646;23.380;2023-04-30T09:47:03;148912.13;;;29.75;30.90
8280;BME280;8335;42.646;23.380;2023-04-30T09:49:30;148823.84;;;29.39;28.47
8280;BME280;8335;42.646;23.380;2023-04-30T09:51:58;148710.44;;;28.93;30.64
8280;BME280;8335;42.646;23.380;2023-04-30T09:54:26;148336.38;;;27.42;30.50
8280;BME280;8335;42.646;23.380;2023-04-30T09:56:54;148166.50;;;26.73;33.68
8280;BME280;8335;42.646;23.380;2023-04-30T09:59:27;148077.19;;;26.37;35.61
8280;BME280;8335;42.646;23.380;2023-04-30T10:01:57;147986.66;;;26.00;32.21
8280;BME280;8335;42.646;23.380;2023-04-30T10:04:27;147835.72;;;25.39;32.85
8280;BME280;8335;42.646;23.380;2023-04-30T10:06:56;147761.59;;;25.09;35.43
8280;BME280;8335;42.646;23.380;2023-04-30T10:09:25;147638.44;;;24.59;34.44
8280;BME280;8335;42.646;23.380;2023-04-30T10:11:56;147468.84;;;23.91;35.73
8280;BME280;8335;42.646;23.380;2023-04-30T10:14:28;147349.53;;;23.42;35.83
8280;BME280;8335;42.646;23.380;2023-04-30T10:17:04;147345.78;;;23.41;37.40
8280;BME280;8335;42.646;23.380;2023-04-30T10:19:38;147334.50;;;23.36;36.83
8280;BME280;8335;42.646;23.380;2023-04-30T10:22:06;147147.47;;;22.60;37.44
8280;BME280;8335;42.646;23.380;2023-04-30T10:24:35;147113.63;;;22.46;37.59
8280;BME280;8335;42.646;23.380;2023-04-30T10:27:02;147163.78;;;22.67;37.13
8280;BME280;8335;42.646;23.380;2023-04-30T10:29:30;147221.53;;;22.90;38.54
8280;BME280;8335;42.646;23.380;2023-04-30T10:31:58;147032.06;;;22.13;40.74
8280;BME280;8335;42.646;23.380;2023-04-30T10:34:34;146964.31;;;21.86;39.97
8280;BME280;8335;42.646;23.380;2023-04-30T10:37:08;146741.19;;;20.95;41.33
8280;BME280;8335;42.646;23.380;2023-04-30T10:39:37;146514.44;;;20.03;44.47
8280;BME280;8335;42.646;23.380;2023-04-30T10:42:05;146316.63;;;19.22;47.57
8280;BME280;8335;42.646;23.380;2023-04-30T10:44:35;146216.50;;;18.82;51.11
8280;BME280;8335;42.646;23.380;2023-04-30T10:47:03;146102.63;;;18.35;55.46
8280;BME280;8335;42.646;23.380;2023-04-30T10:49:30;146010.09;;;17.98;59.88
8280;BME280;8335;42.646;23.380;2023-04-30T10:52:00;145932.56;;;17.66;63.39
8280;BME280;8335;42.646;23.380;2023-04-30T10:54:28;145881.31;;;17.45;63.85
8280;BME280;8335;42.646;23.380;2023-04-30T10:57:08;145875.03;;;17.43;66.35
8280;BME280;8335;42.646;23.380;2023-04-30T10:59:37;145972.59;;;17.82;67.27
8280;BME280;8335;42.646;23.380;2023-04-30T11:02:10;146085.09;;;18.28;67.69
8280;BME280;8335;42.646;23.380;2023-04-30T11:07:36;146367.94;;;19.43;62.65
8280;BME280;8335;42.646;23.380;2023-04-30T11:10:06;146433.03;;;19.70;59.52
8280;BME280;8335;42.646;23.380;2023-04-30T11:12:33;146529.47;;;20.09;58.44
8280;BME280;8335;42.646;23.380;2023-04-30T11:15:06;146588.31;;;20.33;56.73
8280;BME280;8335;42.646;23.380;2023-04-30T11:17:33;146654.75;;;20.60;55.72
8280;BME280;8335;42.646;23.380;2023-04-30T11:20:00;146643.47;;;20.55;54.30
8280;BME280;8335;42.646;23.380;2023-04-30T11:22:27;146703.63;;;20.80;52.62
8280;BME280;8335;42.646;23.380;2023-04-30T11:25:03;146726.16;;;20.89;52.21
8280;BME280;8335;42.646;23.380;2023-04-30T11:27:32;146755.00;;;21.01;52.51
8280;BME280;8335;42.646;23.380;2023-04-30T11:29:59;146765.00;;;21.05;50.13
8280;BME280;8335;42.646;23.380;2023-04-30T11:32:34;146716.13;;;20.85;50.52
8280;BME280;8335;42.646;23.380;2023-04-30T11:35:01;146595.84;;;20.36;48.45
8280;BME280;8335;42.646;23.380;2023-04-30T11:37:30;146595.84;;;20.36;48.44
8280;BME280;8335;42.646;23.380;2023-04-30T11:39:59;146612.09;;;20.43;48.65
8280;BME280;8335;42.646;23.380;2023-04-30T11:42:27;146628.44;;;20.49;49.15
8280;BME280;8335;42.646;23.380;2023-04-30T11:45:02;146514.44;;;20.03;47.27
8280;BME280;8335;42.646;23.380;2023-04-30T11:47:39;146446.81;;;19.75;48.93
8280;BME280;8335;42.646;23.380;2023-04-30T11:50:07;146310.34;;;19.20;50.99
8280;BME280;8335;42.646;23.380;2023-04-30T11:52:33;146227.78;;;18.86;53.39
8280;BME280;8335;42.646;23.380;2023-04-30T11:55:04;146204.00;;;18.77;54.02
8280;BME280;8335;42.646;23.380;2023-04-30T11:57:39;146196.50;;;18.74;54.79
8280;BME280;8335;42.646;23.380;2023-04-30T12:00:10;146190.22;;;18.71;55.70
8280;BME280;8335;42.646;23.380;2023-04-30T12:02:38;146145.16;;;18.53;58.05
8280;BME280;8335;42.646;23.380;2023-04-30T12:05:11;146107.66;;;18.37;56.65
8280;BME280;8335;42.646;23.380;2023-04-30T12:07:44;146065.09;;;18.20;55.02
8280;BME280;8335;42.646;23.380;2023-04-30T12:10:11;145946.38;;;17.72;56.54
8280;BME280;8335;42.646;23.380;2023-04-30T12:12:38;146018.88;;;18.01;60.53
8280;BME280;8335;42.646;23.380;2023-04-30T12:15:13;145931.31;;;17.66;59.34
8280;BME280;8335;42.646;23.380;2023-04-30T12:17:41;145911.31;;;17.57;61.58
8280;BME280;8335;42.646;23.380;2023-04-30T12:20:10;145857.53;;;17.36;60.85
8280;BME280;8335;42.646;23.380;2023-04-30T12:22:37;145816.31;;;17.19;62.22
8280;BME280;8335;42.646;23.380;2023-04-30T12:25:05;145781.34;;;17.04;61.79
8280;BME280;8335;42.646;23.380;2023-04-30T12:27:34;145741.38;;;16.88;61.46
8280;BME280;8335;42.646;23.380;2023-04-30T12:30:03;145662.59;;;16.56;60.60
8280;BME280;8335;42.646;23.380;2023-04-30T12:32:37;145638.88;;;16.46;62.72
8280;BME280;8335;42.646;23.380;2023-04-30T12:35:06;145596.44;;;16.29;66.25
8280;BME280;8335;42.646;23.380;2023-04-30T12:37:33;145540.22;;;16.06;74.92
8280;BME280;8335;42.646;23.380;2023-04-30T12:40:00;145450.34;;;15.69;73.69
8280;BME280;8335;42.646;23.380;2023-04-30T12:42:30;145384.16;;;15.42;74.30
8280;BME280;8335;42.646;23.380;2023-04-30T12:44:58;145318.06;;;15.16;80.04
8280;BME280;8335;42.646;23.380;2023-04-30T12:47:25;145278.09;;;14.99;81.84
8280;BME280;8335;42.646;23.380;2023-04-30T12:49:52;145235.72;;;14.82;80.08
8280;BME280;8335;42.646;23.380;2023-04-30T12:52:23;145214.53;;;14.73;81.65
8280;BME280;8335;42.646;23.380;2023-04-30T12:54:50;145217.00;;;14.74;83.82
8280;BME280;8335;42.646;23.380;2023-04-30T12:57:16;145259.41;;;14.92;82.65
8280;BME280;8335;42.646;23.380;2023-04-30T12:59:56;145355.50;;;15.31;81.80
8280;BME280;8335;42.646;23.380;2023-04-30T13:02:24;145441.66;;;15.66;79.51
8280;BME280;8335;42.646;23.380;2023-04-30T13:04:51;145530.28;;;16.02;78.49
8280;BME280;8335;42.646;23.380;2023-04-30T13:07:20;145602.69;;;16.32;77.88
8280;BME280;8335;42.646;23.380;2023-04-30T13:09:47;145587.69;;;16.26;77.75
8280;BME280;8335;42.646;23.380;2023-04-30T13:12:14;145612.63;;;16.36;74.64